Windsor, CT

7:21 PM EDT on March 29, 2015 (GMT -0400)
Philip's Backyard, Poquonock Area/Village Lane | | Change Station
CLOSE
Current Station
Personal Weather Station
Location: Windsor, CT
Elevation: 161 ft
Nearby Weather Stations

Elev 161 ft 41.88 °N, 72.68 °W | Updated 9 seconds ago

Clear
Clear
39.2 °F
Feels Like 39 °F
N
1.8
Wind Variable Wind from WNW
Gusts 2.2 mph

Today
High -- | Low -- °F
--% Chance of Precip.
Yesterday
High -- | Low -- °F
Precip. -- in
6:39 AM 7:12 PM
Waxing Gibbous, 75% visible
Pressure 30.13 in
Visibility 10.0 miles
Clouds Clear
Windchill 39 °F
Dew Point 9 °F
Humidity 28%
Rainfall 0.04 in
Snow Depth Not available.
UV 0 out of 12
Pollen 5.90 out of 12
Air Quality Not available.
Flu Activity Not available.
METAR KBDL 292251Z 26009KT 10SM CLR 05/M15 A3012 RMK AO2 SLP201 T00501150

More Conditions Fewer Conditions

Pressure 30.13 in
Visibility 10.0 miles
Clouds Clear
Windchill 39 °F
Dew Point 9 °F
Humidity 28%
Rainfall 0.04 in
Snow Depth Not available.
UV 0 out of 12
Pollen 5.90 out of 12
Air Quality Not available.
Flu Activity Not available.
METAR KBDL 292251Z 26009KT 10SM CLR 05/M15 A3012 RMK AO2 SLP201 T00501150

More Conditions Fewer Conditions

10-Day Weather Forecast

Almanac

Astronomy

Mar. 29, 2015 Rise Set
Actual Time
Civil Twilight
Nautical Twilight
Astronomical Twilight
Moon
Length of Visible Light
Length of Day
Tomorrow will be .
, % of the Moon is Illuminated

Today's Extremes

State Highs State Lows

Community

WunderPhotos

Upload Photos

1,809,379 photos uploaded!

WunderBlogs® & News

Nearby

Air Quality

  Air Quality AQ Index Pollutant
Not available.

Snow Depth

Station Depth Elevation

Earthquake Activity

City Distance Mag. Time & Date
Minimum magnitude displayed is 2.5.

Coastal Water Temperatures

Place Temperature

Stations

Nearby Weather Stations

Station Location Temp. Windchill Dew Point Humidity Wind Precip. Elev Updated Type